sensor_id;sensor_type;location;lat;lon;timestamp;P1;durP1;ratioP1;P2;durP2;ratioP2
33421;SDS011;19763;55.798;37.782;2023-02-26T00:00:03;28.63;;;19.02;;
33421;SDS011;19763;55.798;37.782;2023-02-26T00:02:32;26.33;;;18.08;;
33421;SDS011;19763;55.798;37.782;2023-02-26T00:04:58;24.42;;;16.63;;
33421;SDS011;19763;55.798;37.782;2023-02-26T00:07:23;27.80;;;18.35;;
33421;SDS011;19763;55.798;37.782;2023-02-26T00:09:51;24.80;;;18.70;;
33421;SDS011;19763;55.798;37.782;2023-02-26T00:12:17;27.00;;;18.65;;
33421;SDS011;19763;55.798;37.782;2023-02-26T00:14:43;27.10;;;19.27;;
33421;SDS011;19763;55.798;37.782;2023-02-26T00:20:05;27.10;;;17.88;;
33421;SDS011;19763;55.798;37.782;2023-02-26T00:22:32;24.38;;;18.13;;
33421;SDS011;19763;55.798;37.782;2023-02-26T00:24:58;27.52;;;19.25;;
33421;SDS011;19763;55.798;37.782;2023-02-26T00:27:23;28.80;;;18.30;;
33421;SDS011;19763;55.798;37.782;2023-02-26T00:29:49;27.75;;;17.80;;
33421;SDS011;19763;55.798;37.782;2023-02-26T00:32:15;24.10;;;14.38;;
33421;SDS011;19763;55.798;37.782;2023-02-26T00:34:42;26.23;;;18.30;;
33421;SDS011;19763;55.798;37.782;2023-02-26T00:42:22;29.60;;;20.13;;
33421;SDS011;19763;55.798;37.782;2023-02-26T00:44:47;30.00;;;19.45;;
33421;SDS011;19763;55.798;37.782;2023-02-26T00:47:19;31.27;;;21.23;;
33421;SDS011;19763;55.798;37.782;2023-02-26T00:55:28;22.33;;;16.33;;
33421;SDS011;19763;55.798;37.782;2023-02-26T00:57:54;22.58;;;16.35;;
33421;SDS011;19763;55.798;37.782;2023-02-26T01:00:20;20.42;;;14.13;;
33421;SDS011;19763;55.798;37.782;2023-02-26T01:02:46;19.52;;;13.43;;
33421;SDS011;19763;55.798;37.782;2023-02-26T01:05:12;18.80;;;13.60;;
33421;SDS011;19763;55.798;37.782;2023-02-26T01:08:01;15.88;;;13.32;;
33421;SDS011;19763;55.798;37.782;2023-02-26T01:10:29;19.27;;;12.93;;
33421;SDS011;19763;55.798;37.782;2023-02-26T01:12:56;16.85;;;13.10;;
33421;SDS011;19763;55.798;37.782;2023-02-26T01:15:22;13.60;;;9.93;;
33421;SDS011;19763;55.798;37.782;2023-02-26T01:20:42;16.92;;;12.80;;
33421;SDS011;19763;55.798;37.782;2023-02-26T01:23:15;16.45;;;11.40;;
33421;SDS011;19763;55.798;37.782;2023-02-26T01:25:48;16.40;;;12.90;;
33421;SDS011;19763;55.798;37.782;2023-02-26T01:28:18;15.55;;;12.10;;
33421;SDS011;19763;55.798;37.782;2023-02-26T01:30:44;16.25;;;12.38;;
33421;SDS011;19763;55.798;37.782;2023-02-26T01:33:21;15.05;;;10.98;;
33421;SDS011;19763;55.798;37.782;2023-02-26T01:36:18;15.95;;;12.20;;
33421;SDS011;19763;55.798;37.782;2023-02-26T01:38:56;14.65;;;11.05;;
33421;SDS011;19763;55.798;37.782;2023-02-26T01:49:40;11.77;;;9.33;;
33421;SDS011;19763;55.798;37.782;2023-02-26T01:54:58;10.18;;;6.97;;
33421;SDS011;19763;55.798;37.782;2023-02-26T01:57:24;8.90;;;7.35;;
33421;SDS011;19763;55.798;37.782;2023-02-26T01:59:50;10.88;;;8.40;;
33421;SDS011;19763;55.798;37.782;2023-02-26T02:02:17;11.77;;;8.27;;
33421;SDS011;19763;55.798;37.782;2023-02-26T02:04:45;11.35;;;8.45;;
33421;SDS011;19763;55.798;37.782;2023-02-26T02:07:12;9.93;;;7.93;;
33421;SDS011;19763;55.798;37.782;2023-02-26T02:09:39;9.77;;;7.30;;
33421;SDS011;19763;55.798;37.782;2023-02-26T02:15:22;9.52;;;7.82;;
33421;SDS011;19763;55.798;37.782;2023-02-26T02:26:08;11.38;;;9.15;;
33421;SDS011;19763;55.798;37.782;2023-02-26T02:31:45;13.57;;;10.27;;
33421;SDS011;19763;55.798;37.782;2023-02-26T02:36:50;12.45;;;10.75;;
33421;SDS011;19763;55.798;37.782;2023-02-26T02:39:26;14.45;;;11.43;;
33421;SDS011;19763;55.798;37.782;2023-02-26T02:41:57;12.23;;;9.82;;
33421;SDS011;19763;55.798;37.782;2023-02-26T02:44:31;13.77;;;10.75;;
33421;SDS011;19763;55.798;37.782;2023-02-26T02:47:00;14.00;;;11.38;;
33421;SDS011;19763;55.798;37.782;2023-02-26T02:52:04;12.23;;;10.20;;
33421;SDS011;19763;55.798;37.782;2023-02-26T02:54:45;13.23;;;11.00;;
33421;SDS011;19763;55.798;37.782;2023-02-26T02:57:21;11.70;;;8.52;;
33421;SDS011;19763;55.798;37.782;2023-02-26T02:59:56;9.80;;;7.90;;
33421;SDS011;19763;55.798;37.782;2023-02-26T03:02:27;10.48;;;8.52;;
33421;SDS011;19763;55.798;37.782;2023-02-26T03:04:56;9.10;;;7.78;;
33421;SDS011;19763;55.798;37.782;2023-02-26T03:07:22;10.65;;;8.50;;
33421;SDS011;19763;55.798;37.782;2023-02-26T03:09:48;9.52;;;7.70;;
33421;SDS011;19763;55.798;37.782;2023-02-26T03:12:14;8.60;;;6.90;;
33421;SDS011;19763;55.798;37.782;2023-02-26T03:14:40;7.55;;;6.32;;
33421;SDS011;19763;55.798;37.782;2023-02-26T03:17:13;7.75;;;6.90;;
33421;SDS011;19763;55.798;37.782;2023-02-26T03:20:16;7.97;;;6.40;;
33421;SDS011;19763;55.798;37.782;2023-02-26T03:25:26;5.72;;;5.13;;
33421;SDS011;19763;55.798;37.782;2023-02-26T03:41:43;8.48;;;7.20;;
33421;SDS011;19763;55.798;37.782;2023-02-26T03:44:20;18.92;;;12.68;;
33421;SDS011;19763;55.798;37.782;2023-02-26T03:46:53;10.73;;;8.13;;
33421;SDS011;19763;55.798;37.782;2023-02-26T03:49:31;12.35;;;9.50;;
33421;SDS011;19763;55.798;37.782;2023-02-26T03:52:00;9.90;;;8.85;;
33421;SDS011;19763;55.798;37.782;2023-02-26T03:54:29;8.80;;;7.90;;
33421;SDS011;19763;55.798;37.782;2023-02-26T03:56:58;10.85;;;8.73;;
33421;SDS011;19763;55.798;37.782;2023-02-26T03:59:24;10.20;;;8.95;;
33421;SDS011;19763;55.798;37.782;2023-02-26T04:04:51;9.77;;;8.43;;
33421;SDS011;19763;55.798;37.782;2023-02-26T04:07:20;10.57;;;8.57;;
33421;SDS011;19763;55.798;37.782;2023-02-26T04:09:47;9.57;;;8.07;;
33421;SDS011;19763;55.798;37.782;2023-02-26T04:12:19;11.60;;;8.05;;
33421;SDS011;19763;55.798;37.782;2023-02-26T04:14:45;9.15;;;8.02;;
33421;SDS011;19763;55.798;37.782;2023-02-26T04:17:11;9.32;;;8.32;;
33421;SDS011;19763;55.798;37.782;2023-02-26T04:19:37;10.30;;;8.27;;
33421;SDS011;19763;55.798;37.782;2023-02-26T04:22:02;8.95;;;7.85;;
33421;SDS011;19763;55.798;37.782;2023-02-26T04:24:28;10.65;;;9.35;;
33421;SDS011;19763;55.798;37.782;2023-02-26T04:26:53;9.73;;;8.55;;
33421;SDS011;19763;55.798;37.782;2023-02-26T04:29:19;11.70;;;9.40;;
33421;SDS011;19763;55.798;37.782;2023-02-26T04:31:44;10.57;;;9.18;;
33421;SDS011;19763;55.798;37.782;2023-02-26T04:34:10;12.15;;;8.88;;
33421;SDS011;19763;55.798;37.782;2023-02-26T04:36:36;9.68;;;8.68;;
33421;SDS011;19763;55.798;37.782;2023-02-26T04:39:01;11.32;;;8.98;;
33421;SDS011;19763;55.798;37.782;2023-02-26T04:41:27;10.25;;;8.80;;
33421;SDS011;19763;55.798;37.782;2023-02-26T04:43:52;13.00;;;9.45;;
33421;SDS011;19763;55.798;37.782;2023-02-26T04:46:18;12.77;;;9.18;;
33421;SDS011;19763;55.798;37.782;2023-02-26T04:48:44;12.27;;;9.35;;
33421;SDS011;19763;55.798;37.782;2023-02-26T04:51:09;10.93;;;9.80;;
33421;SDS011;19763;55.798;37.782;2023-02-26T04:53:35;11.38;;;9.50;;
33421;SDS011;19763;55.798;37.782;2023-02-26T04:56:01;12.02;;;9.70;;
33421;SDS011;19763;55.798;37.782;2023-02-26T04:58:26;12.27;;;10.73;;
33421;SDS011;19763;55.798;37.782;2023-02-26T05:00:52;12.93;;;10.25;;
33421;SDS011;19763;55.798;37.782;2023-02-26T05:03:19;12.45;;;9.90;;
33421;SDS011;19763;55.798;37.782;2023-02-26T05:05:45;11.18;;;9.85;;
33421;SDS011;19763;55.798;37.782;2023-02-26T05:08:11;12.38;;;10.13;;
33421;SDS011;19763;55.798;37.782;2023-02-26T05:10:37;10.98;;;7.90;;
33421;SDS011;19763;55.798;37.782;2023-02-26T05:13:03;9.63;;;8.60;;
33421;SDS011;19763;55.798;37.782;2023-02-26T05:15:28;9.57;;;7.93;;
33421;SDS011;19763;55.798;37.782;2023-02-26T05:17:54;9.32;;;6.93;;
33421;SDS011;19763;55.798;37.782;2023-02-26T05:20:20;7.55;;;6.78;;
33421;SDS011;19763;55.798;37.782;2023-02-26T05:22:46;8.93;;;6.75;;
33421;SDS011;19763;55.798;37.782;2023-02-26T05:25:12;7.43;;;6.63;;
33421;SDS011;19763;55.798;37.782;2023-02-26T05:27:38;8.48;;;6.35;;
33421;SDS011;19763;55.798;37.782;2023-02-26T05:30:05;5.75;;;4.85;;
33421;SDS011;19763;55.798;37.782;2023-02-26T05:32:31;5.00;;;4.28;;
33421;SDS011;19763;55.798;37.782;2023-02-26T05:34:57;4.82;;;4.22;;
33421;SDS011;19763;55.798;37.782;2023-02-26T05:37:22;6.93;;;4.50;;
33421;SDS011;19763;55.798;37.782;2023-02-26T05:39:48;5.68;;;4.07;;
33421;SDS011;19763;55.798;37.782;2023-02-26T05:42:14;3.85;;;3.10;;
33421;SDS011;19763;55.798;37.782;2023-02-26T05:44:40;6.25;;;3.17;;
33421;SDS011;19763;55.798;37.782;2023-02-26T05:47:05;5.22;;;3.20;;
33421;SDS011;19763;55.798;37.782;2023-02-26T05:49:31;2.88;;;2.58;;
33421;SDS011;19763;55.798;37.782;2023-02-26T05:51:56;4.20;;;2.38;;
33421;SDS011;19763;55.798;37.782;2023-02-26T05:54:22;2.20;;;2.00;;
33421;SDS011;19763;55.798;37.782;2023-02-26T05:56:48;2.67;;;2.40;;
33421;SDS011;19763;55.798;37.782;2023-02-26T05:59:14;2.47;;;2.20;;
33421;SDS011;19763;55.798;37.782;2023-02-26T06:01:39;3.45;;;2.08;;
33421;SDS011;19763;55.798;37.782;2023-02-26T06:04:07;3.33;;;2.45;;
33421;SDS011;19763;55.798;37.782;2023-02-26T06:06:33;2.33;;;2.00;;
33421;SDS011;19763;55.798;37.782;2023-02-26T06:08:59;3.17;;;2.20;;
33421;SDS011;19763;55.798;37.782;2023-02-26T06:11:27;2.30;;;2.10;;
33421;SDS011;19763;55.798;37.782;2023-02-26T06:13:53;3.08;;;2.58;;
33421;SDS011;19763;55.798;37.782;2023-02-26T06:16:18;2.42;;;2.10;;
33421;SDS011;19763;55.798;37.782;2023-02-26T06:18:45;3.22;;;2.20;;
33421;SDS011;19763;55.798;37.782;2023-02-26T06:21:11;2.30;;;2.10;;
33421;SDS011;19763;55.798;37.782;2023-02-26T06:23:36;2.58;;;2.35;;
33421;SDS011;19763;55.798;37.782;2023-02-26T06:26:02;2.08;;;1.88;;
33421;SDS011;19763;55.798;37.782;2023-02-26T06:28:28;3.00;;;2.05;;
33421;SDS011;19763;55.798;37.782;2023-02-26T06:30:54;1.92;;;1.80;;
33421;SDS011;19763;55.798;37.782;2023-02-26T06:33:20;2.45;;;2.05;;
33421;SDS011;19763;55.798;37.782;2023-02-26T06:35:46;2.05;;;1.95;;
33421;SDS011;19763;55.798;37.782;2023-02-26T06:38:12;3.42;;;2.15;;
33421;SDS011;19763;55.798;37.782;2023-02-26T06:40:37;2.22;;;2.03;;
33421;SDS011;19763;55.798;37.782;2023-02-26T06:43:03;2.38;;;1.95;;
33421;SDS011;19763;55.798;37.782;2023-02-26T06:45:28;3.15;;;2.25;;
33421;SDS011;19763;55.798;37.782;2023-02-26T06:47:54;2.70;;;2.25;;
33421;SDS011;19763;55.798;37.782;2023-02-26T06:50:20;3.42;;;2.20;;
33421;SDS011;19763;55.798;37.782;2023-02-26T06:52:45;2.75;;;2.10;;
33421;SDS011;19763;55.798;37.782;2023-02-26T06:55:11;2.75;;;2.25;;
33421;SDS011;19763;55.798;37.782;2023-02-26T06:57:37;2.50;;;2.25;;
33421;SDS011;19763;55.798;37.782;2023-02-26T07:00:03;2.40;;;2.15;;
33421;SDS011;19763;55.798;37.782;2023-02-26T07:02:30;2.70;;;2.40;;
33421;SDS011;19763;55.798;37.782;2023-02-26T07:04:56;3.72;;;2.30;;
33421;SDS011;19763;55.798;37.782;2023-02-26T07:07:21;2.58;;;2.38;;
33421;SDS011;19763;55.798;37.782;2023-02-26T07:09:47;2.95;;;2.50;;
33421;SDS011;19763;55.798;37.782;2023-02-26T07:12:13;3.53;;;2.10;;
33421;SDS011;19763;55.798;37.782;2023-02-26T07:14:39;4.50;;;2.40;;
33421;SDS011;19763;55.798;37.782;2023-02-26T07:17:07;2.60;;;2.40;;
33421;SDS011;19763;55.798;37.782;2023-02-26T07:19:32;3.42;;;2.45;;
33421;SDS011;19763;55.798;37.782;2023-02-26T07:21:58;2.65;;;2.40;;
33421;SDS011;19763;55.798;37.782;2023-02-26T07:24:24;4.78;;;3.03;;
33421;SDS011;19763;55.798;37.782;2023-02-26T07:26:49;2.55;;;2.35;;
33421;SDS011;19763;55.798;37.782;2023-02-26T07:29:15;3.08;;;2.60;;
33421;SDS011;19763;55.798;37.782;2023-02-26T07:31:40;4.22;;;2.60;;
33421;SDS011;19763;55.798;37.782;2023-02-26T07:34:06;3.08;;;2.85;;
33421;SDS011;19763;55.798;37.782;2023-02-26T07:36:31;2.63;;;2.42;;
33421;SDS011;19763;55.798;37.782;2023-02-26T07:38:57;2.90;;;2.50;;
33421;SDS011;19763;55.798;37.782;2023-02-26T07:41:23;2.40;;;2.20;;
33421;SDS011;19763;55.798;37.782;2023-02-26T07:43:48;5.20;;;2.70;;
33421;SDS011;19763;55.798;37.782;2023-02-26T07:46:14;2.60;;;2.40;;
33421;SDS011;19763;55.798;37.782;2023-02-26T07:48:40;3.90;;;2.65;;
33421;SDS011;19763;55.798;37.782;2023-02-26T07:51:05;6.13;;;2.88;;
33421;SDS011;19763;55.798;37.782;2023-02-26T07:53:32;3.15;;;2.58;;
33421;SDS011;19763;55.798;37.782;2023-02-26T07:55:57;5.57;;;2.75;;
33421;SDS011;19763;55.798;37.782;2023-02-26T07:58:23;3.45;;;2.30;;
33421;SDS011;19763;55.798;37.782;2023-02-26T08:00:49;2.67;;;2.28;;
33421;SDS011;19763;55.798;37.782;2023-02-26T08:03:16;3.25;;;2.40;;
33421;SDS011;19763;55.798;37.782;2023-02-26T08:05:42;2.80;;;2.33;;
33421;SDS011;19763;55.798;37.782;2023-02-26T08:08:08;3.65;;;2.30;;
33421;SDS011;19763;55.798;37.782;2023-02-26T08:10:34;2.53;;;2.08;;
33421;SDS011;19763;55.798;37.782;2023-02-26T08:13:00;2.53;;;2.22;;
33421;SDS011;19763;55.798;37.782;2023-02-26T08:15:25;2.90;;;2.50;;
33421;SDS011;19763;55.798;37.782;2023-02-26T08:17:51;3.50;;;2.58;;
33421;SDS011;19763;55.798;37.782;2023-02-26T08:20:17;4.28;;;2.78;;
33421;SDS011;19763;55.798;37.782;2023-02-26T08:22:43;5.63;;;2.38;;
33421;SDS011;19763;55.798;37.782;2023-02-26T08:25:09;4.05;;;2.80;;
33421;SDS011;19763;55.798;37.782;2023-02-26T08:27:34;4.03;;;2.28;;
33421;SDS011;19763;55.798;37.782;2023-02-26T08:30:01;4.97;;;2.30;;
33421;SDS011;19763;55.798;37.782;2023-02-26T08:32:27;3.42;;;2.50;;
33421;SDS011;19763;55.798;37.782;2023-02-26T08:34:53;4.75;;;2.83;;
33421;SDS011;19763;55.798;37.782;2023-02-26T08:37:19;2.30;;;2.10;;
33421;SDS011;19763;55.798;37.782;2023-02-26T08:39:47;2.55;;;2.35;;
33421;SDS011;19763;55.798;37.782;2023-02-26T08:42:13;3.58;;;2.38;;
33421;SDS011;19763;55.798;37.782;2023-02-26T08:44:40;2.97;;;2.42;;
33421;SDS011;19763;55.798;37.782;2023-02-26T08:47:06;2.75;;;2.25;;
33421;SDS011;19763;55.798;37.782;2023-02-26T08:49:32;2.65;;;2.20;;
33421;SDS011;19763;55.798;37.782;2023-02-26T08:51:57;2.28;;;1.90;;
33421;SDS011;19763;55.798;37.782;2023-02-26T08:54:23;1.98;;;1.73;;
33421;SDS011;19763;55.798;37.782;2023-02-26T08:56:49;1.58;;;1.45;;
33421;SDS011;19763;55.798;37.782;2023-02-26T08:59:14;2.05;;;1.55;;
33421;SDS011;19763;55.798;37.782;2023-02-26T09:01:40;1.52;;;1.20;;
33421;SDS011;19763;55.798;37.782;2023-02-26T09:04:06;2.25;;;1.60;;
33421;SDS011;19763;55.798;37.782;2023-02-26T09:06:31;1.77;;;1.40;;
33421;SDS011;19763;55.798;37.782;2023-02-26T09:08:57;2.22;;;1.20;;
33421;SDS011;19763;55.798;37.782;2023-02-26T09:11:22;1.80;;;1.50;;
33421;SDS011;19763;55.798;37.782;2023-02-26T09:13:48;2.15;;;1.70;;
33421;SDS011;19763;55.798;37.782;2023-02-26T09:16:13;1.85;;;1.70;;
33421;SDS011;19763;55.798;37.782;2023-02-26T09:18:39;1.92;;;1.67;;
33421;SDS011;19763;55.798;37.782;2023-02-26T09:21:05;2.30;;;1.20;;
33421;SDS011;19763;55.798;37.782;2023-02-26T09:23:30;2.10;;;1.90;;
33421;SDS011;19763;55.798;37.782;2023-02-26T09:25:56;2.22;;;1.50;;
33421;SDS011;19763;55.798;37.782;2023-02-26T09:28:22;2.40;;;1.33;;
33421;SDS011;19763;55.798;37.782;2023-02-26T09:30:52;2.47;;;1.83;;
33421;SDS011;19763;55.798;37.782;2023-02-26T09:33:19;3.65;;;1.73;;
33421;SDS011;19763;55.798;37.782;2023-02-26T09:35:46;3.10;;;1.20;;
33421;SDS011;19763;55.798;37.782;2023-02-26T09:38:13;2.60;;;1.50;;
33421;SDS011;19763;55.798;37.782;2023-02-26T09:41:01;1.77;;;1.65;;
33421;SDS011;19763;55.798;37.782;2023-02-26T09:45:56;1.83;;;1.50;;
33421;SDS011;19763;55.798;37.782;2023-02-26T09:48:28;2.47;;;1.70;;
33421;SDS011;19763;55.798;37.782;2023-02-26T09:50:56;2.28;;;1.70;;
33421;SDS011;19763;55.798;37.782;2023-02-26T09:53:32;1.85;;;1.55;;
33421;SDS011;19763;55.798;37.782;2023-02-26T09:58:58;3.50;;;1.35;;
33421;SDS011;19763;55.798;37.782;2023-02-26T10:01:26;1.98;;;1.77;;
33421;SDS011;19763;55.798;37.782;2023-02-26T10:06:31;1.55;;;1.45;;
33421;SDS011;19763;55.798;37.782;2023-02-26T10:17:22;2.75;;;1.60;;
33421;SDS011;19763;55.798;37.782;2023-02-26T10:20:03;3.08;;;1.63;;
33421;SDS011;19763;55.798;37.782;2023-02-26T10:22:41;2.67;;;1.83;;
33421;SDS011;19763;55.798;37.782;2023-02-26T10:25:15;2.47;;;1.50;;
33421;SDS011;19763;55.798;37.782;2023-02-26T10:30:57;2.20;;;1.90;;
33421;SDS011;19763;55.798;37.782;2023-02-26T10:33:45;2.50;;;1.80;;
33421;SDS011;19763;55.798;37.782;2023-02-26T10:36:19;3.70;;;1.80;;
33421;SDS011;19763;55.798;37.782;2023-02-26T10:38:50;1.73;;;1.63;;
33421;SDS011;19763;55.798;37.782;2023-02-26T10:41:22;3.67;;;3.38;;
33421;SDS011;19763;55.798;37.782;2023-02-26T10:43:57;3.15;;;1.60;;
33421;SDS011;19763;55.798;37.782;2023-02-26T10:51:56;2.03;;;1.58;;
33421;SDS011;19763;55.798;37.782;2023-02-26T10:54:32;2.35;;;1.75;;
33421;SDS011;19763;55.798;37.782;2023-02-26T10:57:00;1.95;;;1.75;;
33421;SDS011;19763;55.798;37.782;2023-02-26T10:59:25;1.80;;;1.65;;
33421;SDS011;19763;55.798;37.782;2023-02-26T11:01:51;3.10;;;1.92;;
33421;SDS011;19763;55.798;37.782;2023-02-26T11:04:20;4.13;;;1.95;;
33421;SDS011;19763;55.798;37.782;2023-02-26T11:06:48;2.10;;;1.70;;
33421;SDS011;19763;55.798;37.782;2023-02-26T11:09:26;2.13;;;1.80;;
33421;SDS011;19763;55.798;37.782;2023-02-26T11:12:12;4.18;;;1.98;;
33421;SDS011;19763;55.798;37.782;2023-02-26T11:14:42;2.35;;;2.00;;
33421;SDS011;19763;55.798;37.782;2023-02-26T11:17:12;2.28;;;1.73;;
33421;SDS011;19763;55.798;37.782;2023-02-26T11:19:51;2.17;;;1.73;;
33421;SDS011;19763;55.798;37.782;2023-02-26T11:22:21;1.85;;;1.67;;
33421;SDS011;19763;55.798;37.782;2023-02-26T11:24:49;2.47;;;2.17;;
33421;SDS011;19763;55.798;37.782;2023-02-26T11:27:21;4.38;;;1.98;;
33421;SDS011;19763;55.798;37.782;2023-02-26T11:29:55;3.53;;;1.90;;
33421;SDS011;19763;55.798;37.782;2023-02-26T11:32:28;4.43;;;1.85;;
33421;SDS011;19763;55.798;37.782;2023-02-26T11:34:55;3.10;;;2.20;;
33421;SDS011;19763;55.798;37.782;2023-02-26T11:37:27;2.25;;;1.73;;
33421;SDS011;19763;55.798;37.782;2023-02-26T11:39:58;2.75;;;2.20;;
33421;SDS011;19763;55.798;37.782;2023-02-26T11:42:33;3.70;;;2.10;;
33421;SDS011;19763;55.798;37.782;2023-02-26T11:45:03;2.97;;;2.25;;
33421;SDS011;19763;55.798;37.782;2023-02-26T11:47:31;2.38;;;1.90;;
33421;SDS011;19763;55.798;37.782;2023-02-26T11:50:02;2.40;;;2.17;;
33421;SDS011;19763;55.798;37.782;2023-02-26T11:52:35;2.75;;;2.13;;
33421;SDS011;19763;55.798;37.782;2023-02-26T11:55:16;2.53;;;2.13;;
33421;SDS011;19763;55.798;37.782;2023-02-26T11:57:43;2.25;;;1.95;;
33421;SDS011;19763;55.798;37.782;2023-02-26T12:00:51;2.55;;;2.13;;
33421;SDS011;19763;55.798;37.782;2023-02-26T12:03:03;4.05;;;2.20;;
33421;SDS011;19763;55.798;37.782;2023-02-26T12:05:39;5.13;;;2.20;;
33421;SDS011;19763;55.798;37.782;2023-02-26T12:08:12;4.93;;;1.88;;
33421;SDS011;19763;55.798;37.782;2023-02-26T12:10:44;2.20;;;1.92;;
33421;SDS011;19763;55.798;37.782;2023-02-26T12:13:39;2.08;;;1.80;;
33421;SDS011;19763;55.798;37.782;2023-02-26T12:27:35;3.67;;;2.10;;
33421;SDS011;19763;55.798;37.782;2023-02-26T12:35:57;2.95;;;2.00;;
33421;SDS011;19763;55.798;37.782;2023-02-26T12:41:11;4.20;;;2.30;;
33421;SDS011;19763;55.798;37.782;2023-02-26T12:44:13;3.40;;;2.08;;
33421;SDS011;19763;55.798;37.782;2023-02-26T12:49:27;2.30;;;2.05;;
33421;SDS011;19763;55.798;37.782;2023-02-26T13:19:35;3.13;;;2.65;;
33421;SDS011;19763;55.798;37.782;2023-02-26T13:22:14;3.58;;;2.75;;
33421;SDS011;19763;55.798;37.782;2023-02-26T13:25:00;4.00;;;2.70;;
33421;SDS011;19763;55.798;37.782;2023-02-26T13:27:39;4.18;;;3.03;;
33421;SDS011;19763;55.798;37.782;2023-02-26T13:33:15;4.28;;;3.40;;
33421;SDS011;19763;55.798;37.782;2023-02-26T13:35:43;6.50;;;4.20;;
33421;SDS011;19763;55.798;37.782;2023-02-26T13:46:22;5.80;;;4.57;;
33421;SDS011;19763;55.798;37.782;2023-02-26T13:52:01;6.82;;;5.10;;
33421;SDS011;19763;55.798;37.782;2023-02-26T13:54:31;7.45;;;5.60;;
33421;SDS011;19763;55.798;37.782;2023-02-26T13:59:53;10.35;;;6.50;;
33421;SDS011;19763;55.798;37.782;2023-02-26T14:10:26;8.05;;;6.43;;
33421;SDS011;19763;55.798;37.782;2023-02-26T14:23:51;7.43;;;6.57;;
33421;SDS011;19763;55.798;37.782;2023-02-26T14:26:27;9.55;;;6.97;;
33421;SDS011;19763;55.798;37.782;2023-02-26T14:31:45;10.10;;;6.40;;
33421;SDS011;19763;55.798;37.782;2023-02-26T14:34:34;7.95;;;6.85;;
33421;SDS011;19763;55.798;37.782;2023-02-26T14:37:09;7.72;;;6.47;;
33421;SDS011;19763;55.798;37.782;2023-02-26T14:39:40;8.68;;;6.60;;
33421;SDS011;19763;55.798;37.782;2023-02-26T14:42:17;10.07;;;7.05;;
33421;SDS011;19763;55.798;37.782;2023-02-26T14:44:51;7.60;;;6.78;;
33421;SDS011;19763;55.798;37.782;2023-02-26T14:47:25;8.60;;;7.13;;
33421;SDS011;19763;55.798;37.782;2023-02-26T14:49:51;9.77;;;8.27;;
33421;SDS011;19763;55.798;37.782;2023-02-26T14:55:34;8.52;;;7.20;;
33421;SDS011;19763;55.798;37.782;2023-02-26T14:58:29;12.27;;;8.25;;
33421;SDS011;19763;55.798;37.782;2023-02-26T15:01:13;10.23;;;8.38;;
33421;SDS011;19763;55.798;37.782;2023-02-26T15:10:15;10.48;;;8.93;;
33421;SDS011;19763;55.798;37.782;2023-02-26T15:15:28;9.00;;;7.78;;
33421;SDS011;19763;55.798;37.782;2023-02-26T15:23:09;13.05;;;9.00;;
33421;SDS011;19763;55.798;37.782;2023-02-26T15:25:38;12.48;;;9.05;;
33421;SDS011;19763;55.798;37.782;2023-02-26T15:28:09;10.30;;;8.23;;
33421;SDS011;19763;55.798;37.782;2023-02-26T15:30:38;13.38;;;8.60;;
33421;SDS011;19763;55.798;37.782;2023-02-26T15:33:09;11.65;;;8.80;;
33421;SDS011;19763;55.798;37.782;2023-02-26T15:35:41;10.48;;;8.35;;
33421;SDS011;19763;55.798;37.782;2023-02-26T15:38:08;11.43;;;8.32;;
33421;SDS011;19763;55.798;37.782;2023-02-26T15:40:34;10.73;;;8.98;;
33421;SDS011;19763;55.798;37.782;2023-02-26T15:43:04;14.65;;;8.77;;
33421;SDS011;19763;55.798;37.782;2023-02-26T15:48:16;11.38;;;8.63;;
33421;SDS011;19763;55.798;37.782;2023-02-26T15:50:47;10.73;;;9.02;;
33421;SDS011;19763;55.798;37.782;2023-02-26T15:56:09;10.20;;;8.82;;
33421;SDS011;19763;55.798;37.782;2023-02-26T15:59:00;9.60;;;8.13;;
33421;SDS011;19763;55.798;37.782;2023-02-26T16:03:59;12.68;;;9.27;;
33421;SDS011;19763;55.798;37.782;2023-02-26T16:06:31;12.45;;;9.25;;
33421;SDS011;19763;55.798;37.782;2023-02-26T16:09:00;11.35;;;8.90;;
33421;SDS011;19763;55.798;37.782;2023-02-26T16:11:36;12.40;;;9.70;;
33421;SDS011;19763;55.798;37.782;2023-02-26T16:14:04;10.43;;;8.15;;
33421;SDS011;19763;55.798;37.782;2023-02-26T16:16:51;12.55;;;9.63;;
33421;SDS011;19763;55.798;37.782;2023-02-26T16:19:29;11.90;;;9.45;;
33421;SDS011;19763;55.798;37.782;2023-02-26T16:24:44;11.10;;;9.00;;
33421;SDS011;19763;55.798;37.782;2023-02-26T16:27:16;10.98;;;9.43;;
33421;SDS011;19763;55.798;37.782;2023-02-26T16:29:44;11.63;;;9.38;;
33421;SDS011;19763;55.798;37.782;2023-02-26T16:32:15;11.00;;;9.00;;
33421;SDS011;19763;55.798;37.782;2023-02-26T16:34:45;11.75;;;9.00;;
33421;SDS011;19763;55.798;37.782;2023-02-26T16:37:21;12.88;;;9.25;;
33421;SDS011;19763;55.798;37.782;2023-02-26T16:40:35;12.52;;;9.48;;
33421;SDS011;19763;55.798;37.782;2023-02-26T16:45:37;11.75;;;9.25;;
33421;SDS011;19763;55.798;37.782;2023-02-26T16:51:01;12.35;;;9.38;;
33421;SDS011;19763;55.798;37.782;2023-02-26T16:56:31;13.07;;;9.80;;
33421;SDS011;19763;55.798;37.782;2023-02-26T16:59:05;13.63;;;9.73;;
33421;SDS011;19763;55.798;37.782;2023-02-26T17:01:38;13.40;;;9.85;;
33421;SDS011;19763;55.798;37.782;2023-02-26T17:04:10;16.98;;;10.10;;
33421;SDS011;19763;55.798;37.782;2023-02-26T17:06:39;11.90;;;8.90;;
33421;SDS011;19763;55.798;37.782;2023-02-26T17:09:06;10.95;;;9.13;;
33421;SDS011;19763;55.798;37.782;2023-02-26T17:11:47;12.25;;;8.73;;
33421;SDS011;19763;55.798;37.782;2023-02-26T17:14:20;12.52;;;9.30;;
33421;SDS011;19763;55.798;37.782;2023-02-26T17:16:48;11.57;;;8.55;;
33421;SDS011;19763;55.798;37.782;2023-02-26T17:19:15;9.77;;;7.72;;
33421;SDS011;19763;55.798;37.782;2023-02-26T17:21:42;10.27;;;8.27;;
33421;SDS011;19763;55.798;37.782;2023-02-26T17:24:15;12.30;;;8.20;;
33421;SDS011;19763;55.798;37.782;2023-02-26T17:26:44;10.63;;;8.55;;
33421;SDS011;19763;55.798;37.782;2023-02-26T17:29:21;10.32;;;8.63;;
33421;SDS011;19763;55.798;37.782;2023-02-26T17:31:54;13.18;;;8.18;;
33421;SDS011;19763;55.798;37.782;2023-02-26T17:34:20;13.57;;;9.27;;
33421;SDS011;19763;55.798;37.782;2023-02-26T17:36:46;10.60;;;8.05;;
33421;SDS011;19763;55.798;37.782;2023-02-26T17:39:12;10.70;;;7.95;;
33421;SDS011;19763;55.798;37.782;2023-02-26T17:41:40;12.07;;;8.05;;
33421;SDS011;19763;55.798;37.782;2023-02-26T17:44:07;10.40;;;7.88;;
33421;SDS011;19763;55.798;37.782;2023-02-26T17:46:33;9.88;;;8.10;;
33421;SDS011;19763;55.798;37.782;2023-02-26T17:48:58;11.32;;;8.18;;
33421;SDS011;19763;55.798;37.782;2023-02-26T17:51:24;11.25;;;8.05;;
33421;SDS011;19763;55.798;37.782;2023-02-26T17:53:52;12.23;;;8.68;;
33421;SDS011;19763;55.798;37.782;2023-02-26T17:56:29;10.13;;;7.90;;
33421;SDS011;19763;55.798;37.782;2023-02-26T17:58:57;9.88;;;8.13;;
33421;SDS011;19763;55.798;37.782;2023-02-26T18:01:23;10.85;;;8.90;;
33421;SDS011;19763;55.798;37.782;2023-02-26T18:03:53;12.27;;;8.50;;
33421;SDS011;19763;55.798;37.782;2023-02-26T18:06:19;10.63;;;7.95;;
33421;SDS011;19763;55.798;37.782;2023-02-26T18:08:45;10.65;;;8.18;;
33421;SDS011;19763;55.798;37.782;2023-02-26T18:11:13;9.30;;;7.63;;
33421;SDS011;19763;55.798;37.782;2023-02-26T18:13:40;52.72;;;27.45;;
33421;SDS011;19763;55.798;37.782;2023-02-26T18:16:06;10.10;;;7.82;;
33421;SDS011;19763;55.798;37.782;2023-02-26T18:18:41;11.25;;;8.52;;